AMS weather

Amsterdam Airport Schiphol
Amsterdam, Noord-Holland, Netherlands

Public forecast

Using degrees Celsius for public forecast. Weather courtesy of forecast.io.

Current aviation weather report (METAR) for Amsterdam Airport Schiphol

Retrieved 2020/01/22 07:25 UTC (9 minutes ago):

EHAM 220725Z 21004KT 2600 BR FEW005 BKN008 OVC011 04/04 Q1036 BECMG BKN003

Aviation forecast (TAF) for Amsterdam Airport Schiphol

Retrieved 2020/01/22 06:29 UTC (1 hour ago):

TAF EHAM 220521Z 2206/2312 22005KT 2500 BR SCT003 BKN008 BECMG 2206/2209 SCT002 BKN003 PROB40 2209/2312 0800 FG BKN001 PROB30 2213/2217 7000 NSW SCT018